Time;durP1;ratioP1;P1;durP2;ratioP2;P2;SDS_P1;SDS_P2;PMS_P1;PMS_P2;Temp;Humidity;BMP_temperature;BMP_pressure;BME280_temperature;BME280_humidity;BME280_pressure;Samples;Min_cycle;Max_cycle;Signal;HPM_P1;HPM_P2
2021/03/03 00:01:19;;;;;;;9.18;5.45;;;;;;;;;;5003999;28;20417;-70
2021/03/03 00:03:44;;;;;;;8.18;5.40;;;;;;;;;;4972787;28;20035;-70
2021/03/03 00:06:10;;;;;;;7.68;5.82;;;;;;;;;;4955907;28;20397;-70
2021/03/03 00:08:35;;;;;;;7.45;5.40;;;;;;;;;;4955237;28;20440;-70
2021/03/03 00:11:01;;;;;;;8.95;5.57;;;;;;;;;;4955185;28;20038;-70
2021/03/03 00:13:26;;;;;;;8.95;6.50;;;;;;;;;;4975378;28;20420;-70
2021/03/03 00:15:52;;;;;;;9.18;6.30;;;;;;;;;;4991271;28;20112;-70
2021/03/03 00:18:17;;;;;;;10.55;5.70;;;;;;;;;;4974836;28;20038;-70
2021/03/03 00:20:43;;;;;;;7.72;5.60;;;;;;;;;;4990714;28;20513;-70
2021/03/03 00:23:08;;;;;;;7.05;5.22;;;;;;;;;;4963844;28;20378;-70
2021/03/03 00:25:33;;;;;;;7.55;6.00;;;;;;;;;;4972557;28;20393;-70
2021/03/03 00:27:59;;;;;;;8.05;5.75;;;;;;;;;;4970981;28;20397;-70
2021/03/03 00:30:24;;;;;;;8.43;5.38;;;;;;;;;;4971229;28;20393;-70
2021/03/03 00:32:50;;;;;;;8.43;5.70;;;;;;;;;;4972811;28;20417;-70
2021/03/03 00:35:15;;;;;;;8.15;6.10;;;;;;;;;;4971379;28;20071;-70
2021/03/03 00:37:41;;;;;;;7.72;5.68;;;;;;;;;;4955137;28;20038;-70
2021/03/03 00:40:07;;;;;;;8.00;6.18;;;;;;;;;;4972193;28;20477;-70
2021/03/03 00:42:32;;;;;;;8.32;5.30;;;;;;;;;;4975164;28;20027;-70
2021/03/03 00:44:58;;;;;;;8.13;4.90;;;;;;;;;;4959266;28;20486;-70
2021/03/03 00:47:23;;;;;;;6.90;5.25;;;;;;;;;;4958477;28;20118;-70
2021/03/03 00:49:48;;;;;;;8.43;5.90;;;;;;;;;;4975024;28;20393;-70
2021/03/03 00:52:14;;;;;;;7.38;5.32;;;;;;;;;;4973853;28;20405;-70
2021/03/03 00:54:39;;;;;;;9.00;5.65;;;;;;;;;;4992910;28;20108;-70
2021/03/03 00:57:05;;;;;;;9.75;5.18;;;;;;;;;;4994668;28;20109;-70
2021/03/03 00:59:30;;;;;;;7.57;5.82;;;;;;;;;;4975532;28;20070;-70
2021/03/03 01:01:56;;;;;;;7.85;5.30;;;;;;;;;;4974651;28;20034;-70
2021/03/03 01:04:21;;;;;;;8.77;6.47;;;;;;;;;;4974867;28;20421;-70
2021/03/03 01:06:47;;;;;;;8.10;5.68;;;;;;;;;;4974596;28;20489;-70
2021/03/03 01:09:12;;;;;;;7.45;5.38;;;;;;;;;;4974198;28;20382;-70
2021/03/03 01:11:38;;;;;;;7.00;5.47;;;;;;;;;;4974557;28;20039;-69
2021/03/03 01:14:03;;;;;;;9.20;6.75;;;;;;;;;;4958065;28;20046;-70
2021/03/03 01:16:29;;;;;;;10.18;5.60;;;;;;;;;;4975639;28;20040;-69
2021/03/03 01:18:54;;;;;;;8.85;5.90;;;;;;;;;;4974801;28;20045;-70
2021/03/03 01:21:20;;;;;;;8.05;5.85;;;;;;;;;;4975707;28;20105;-70
2021/03/03 01:23:45;;;;;;;7.63;6.18;;;;;;;;;;4973849;28;20054;-70
2021/03/03 01:26:11;;;;;;;8.93;6.10;;;;;;;;;;4974478;28;20073;-69
2021/03/03 01:28:36;;;;;;;6.43;5.07;;;;;;;;;;4974311;28;20118;-70
2021/03/03 01:31:02;;;;;;;7.03;5.40;;;;;;;;;;4958167;28;20031;-69
2021/03/03 01:33:28;;;;;;;7.88;5.13;;;;;;;;;;4958597;28;20362;-70
2021/03/03 01:35:54;;;;;;;8.18;5.35;;;;;;;;;;4958198;28;20066;-70
2021/03/03 01:38:19;;;;;;;7.18;5.32;;;;;;;;;;4975119;28;20555;-70
2021/03/03 01:40:45;;;;;;;8.02;5.63;;;;;;;;;;4974280;28;20042;-70
2021/03/03 01:43:11;;;;;;;8.90;5.90;;;;;;;;;;4974153;28;20037;-70
2021/03/03 01:45:36;;;;;;;7.28;5.10;;;;;;;;;;4974166;28;20059;-70
2021/03/03 01:48:02;;;;;;;7.18;5.45;;;;;;;;;;4974082;28;20062;-70
2021/03/03 01:50:27;;;;;;;9.30;6.03;;;;;;;;;;4989642;28;20053;-70
2021/03/03 01:52:52;;;;;;;7.20;5.45;;;;;;;;;;4992342;28;20038;-70
2021/03/03 01:55:18;;;;;;;7.97;5.57;;;;;;;;;;4962998;28;20043;-70
2021/03/03 01:57:43;;;;;;;8.32;5.25;;;;;;;;;;4974012;28;20445;-70
2021/03/03 02:00:09;;;;;;;8.75;5.18;;;;;;;;;;4957235;28;20398;-70
2021/03/03 02:02:35;;;;;;;7.63;5.85;;;;;;;;;;4958000;28;20035;-70
2021/03/03 02:05:00;;;;;;;8.07;5.60;;;;;;;;;;4974980;28;20041;-70
2021/03/03 02:07:52;;;;;;;6.15;4.75;;;;;;;;;;4972661;28;20427;-70
2021/03/03 02:10:34;;;;;;;7.90;5.23;;;;;;;;;;4976506;28;20031;-70
2021/03/03 02:13:07;;;;;;;8.82;5.72;;;;;;;;;;4969273;28;20031;-70
2021/03/03 02:15:32;;;;;;;;;;;;;;;;;;4978120;28;20030;-70
2021/03/03 02:17:57;;;;;;;7.55;5.47;;;;;;;;;;4993336;28;19979;-70
2021/03/03 02:20:24;;;;;;;7.57;5.82;;;;;;;;;;4977235;28;20040;-70
2021/03/03 02:23:11;;;;;;;7.13;5.32;;;;;;;;;;4962303;28;20038;-69
2021/03/03 02:25:36;;;;;;;7.00;5.35;;;;;;;;;;4958325;28;20034;-69
2021/03/03 02:28:04;;;;;;;7.00;5.00;;;;;;;;;;4957507;28;20042;-69
2021/03/03 02:30:29;;;;;;;8.63;6.03;;;;;;;;;;4957251;28;20517;-70
2021/03/03 02:32:55;;;;;;;8.02;5.60;;;;;;;;;;4956970;28;20073;-70
2021/03/03 02:35:20;;;;;;;6.68;5.47;;;;;;;;;;4957084;28;20026;-69
2021/03/03 02:37:46;;;;;;;7.50;5.22;;;;;;;;;;4956422;28;20038;-69
2021/03/03 02:40:12;;;;;;;7.22;5.25;;;;;;;;;;4956610;28;20069;-69
2021/03/03 02:42:38;;;;;;;8.02;5.75;;;;;;;;;;4989395;28;20035;-70
2021/03/03 02:45:08;;;;;;;7.38;6.40;;;;;;;;;;4973275;28;20101;-70
2021/03/03 02:47:34;;;;;;;8.55;6.25;;;;;;;;;;4989220;28;20115;-70
2021/03/03 02:50:00;;;;;;;6.82;5.45;;;;;;;;;;5005058;28;20556;-70
2021/03/03 02:52:27;;;;;;;8.68;5.32;;;;;;;;;;5004465;28;20038;-70
2021/03/03 02:54:54;;;;;;;8.55;5.95;;;;;;;;;;4991797;28;20061;-70
2021/03/03 02:57:20;;;;;;;9.38;6.15;;;;;;;;;;4992189;28;20049;-70
2021/03/03 02:59:49;;;;;;;6.63;5.10;;;;;;;;;;4991842;28;20388;-70
2021/03/03 03:02:15;;;;;;;8.50;6.05;;;;;;;;;;4975790;28;20092;-70
2021/03/03 03:04:43;;;;;;;6.80;5.13;;;;;;;;;;4957254;28;20042;-70
2021/03/03 03:07:11;;;;;;;7.18;4.65;;;;;;;;;;4956348;28;20050;-70
2021/03/03 03:09:37;;;;;;;7.50;5.78;;;;;;;;;;4972261;28;20039;-70
2021/03/03 03:12:03;;;;;;;9.77;5.43;;;;;;;;;;4959266;28;20568;-69
2021/03/03 03:14:28;;;;;;;7.68;6.20;;;;;;;;;;4968624;28;20145;-70
2021/03/03 03:16:55;;;;;;;8.10;5.47;;;;;;;;;;4975643;28;20057;-70
2021/03/03 03:19:23;;;;;;;7.22;5.00;;;;;;;;;;4975413;28;20030;-70
2021/03/03 03:21:49;;;;;;;7.45;5.75;;;;;;;;;;4974123;28;20074;-69
2021/03/03 03:24:16;;;;;;;8.13;5.78;;;;;;;;;;4955398;28;20058;-70
2021/03/03 03:26:41;;;;;;;7.97;5.80;;;;;;;;;;4955496;28;20035;-70
2021/03/03 03:29:07;;;;;;;7.72;5.53;;;;;;;;;;4972083;28;20033;-70
2021/03/03 03:31:33;;;;;;;7.15;5.95;;;;;;;;;;4972221;28;20039;-70
2021/03/03 03:33:59;;;;;;;7.10;5.88;;;;;;;;;;4955742;28;20077;-70
2021/03/03 03:36:24;;;;;;;6.40;5.30;;;;;;;;;;4972026;28;20444;-69
2021/03/03 03:38:50;;;;;;;6.53;4.97;;;;;;;;;;4955857;28;20035;-69
2021/03/03 03:41:15;;;;;;;7.57;5.32;;;;;;;;;;4971902;28;20034;-70
2021/03/03 03:43:41;;;;;;;6.55;5.22;;;;;;;;;;4971761;28;20142;-70
2021/03/03 03:46:07;;;;;;;7.50;5.47;;;;;;;;;;4955632;28;20031;-69
2021/03/03 03:48:35;;;;;;;8.27;5.38;;;;;;;;;;4970810;28;20393;-69
2021/03/03 03:51:05;;;;;;;6.55;5.50;;;;;;;;;;4971378;28;20092;-69
2021/03/03 03:53:33;;;;;;;6.35;5.38;;;;;;;;;;4971809;28;20033;-70
2021/03/03 03:55:59;;;;;;;7.03;5.47;;;;;;;;;;4971517;28;20039;-70
2021/03/03 03:58:24;;;;;;;7.38;5.38;;;;;;;;;;4972060;28;20042;-69
2021/03/03 04:00:50;;;;;;;8.13;5.43;;;;;;;;;;5003970;28;20517;-70
2021/03/03 04:03:15;;;;;;;6.57;5.03;;;;;;;;;;4987728;28;20035;-70
2021/03/03 04:05:41;;;;;;;7.45;5.32;;;;;;;;;;5004099;28;20388;-70
2021/03/03 04:08:06;;;;;;;7.72;5.90;;;;;;;;;;4987575;28;20101;-69
2021/03/03 04:10:31;;;;;;;7.78;5.30;;;;;;;;;;5004119;28;20035;-70
2021/03/03 04:12:57;;;;;;;6.35;5.43;;;;;;;;;;5003934;28;20563;-69
2021/03/03 04:15:23;;;;;;;7.78;5.50;;;;;;;;;;4994049;28;20401;-69
2021/03/03 04:17:49;;;;;;;8.90;5.38;;;;;;;;;;4978855;28;20488;-70
2021/03/03 04:20:15;;;;;;;8.63;5.18;;;;;;;;;;4977308;28;20045;-70
2021/03/03 04:22:40;;;;;;;7.05;4.95;;;;;;;;;;4975420;28;20035;-69
2021/03/03 04:25:08;;;;;;;7.57;4.78;;;;;;;;;;4975939;28;20070;-70
2021/03/03 04:27:33;;;;;;;8.23;5.63;;;;;;;;;;4959742;28;20595;-69
2021/03/03 04:29:59;;;;;;;9.27;5.32;;;;;;;;;;4976452;28;20034;-70
2021/03/03 04:32:24;;;;;;;6.90;5.40;;;;;;;;;;4975112;28;20039;-69
2021/03/03 04:34:50;;;;;;;6.43;5.05;;;;;;;;;;4975024;28;20117;-70
2021/03/03 04:37:16;;;;;;;9.45;6.00;;;;;;;;;;4958983;28;20034;-70
2021/03/03 04:39:41;;;;;;;8.70;4.90;;;;;;;;;;4959159;28;20045;-70
2021/03/03 04:42:07;;;;;;;7.47;5.35;;;;;;;;;;4976939;28;20034;-70
2021/03/03 04:44:32;;;;;;;7.28;5.10;;;;;;;;;;4976623;28;20397;-69
2021/03/03 04:46:58;;;;;;;7.20;5.60;;;;;;;;;;4958848;28;20370;-70
2021/03/03 04:49:24;;;;;;;8.57;4.72;;;;;;;;;;4959085;28;20043;-70
2021/03/03 04:51:49;;;;;;;8.07;4.93;;;;;;;;;;4959245;28;20035;-70
2021/03/03 04:54:14;;;;;;;9.07;5.55;;;;;;;;;;4975120;28;20046;-70
2021/03/03 04:56:40;;;;;;;7.45;5.20;;;;;;;;;;4974661;28;20105;-69
2021/03/03 04:59:05;;;;;;;8.70;5.18;;;;;;;;;;4958556;28;20437;-70
2021/03/03 05:01:32;;;;;;;9.55;5.18;;;;;;;;;;4974768;28;20117;-70
2021/03/03 05:03:57;;;;;;;6.88;5.57;;;;;;;;;;4958704;28;20093;-70
2021/03/03 05:06:23;;;;;;;7.10;4.97;;;;;;;;;;4975707;28;20030;-69
2021/03/03 05:08:48;;;;;;;6.53;5.03;;;;;;;;;;4974208;28;20412;-70
2021/03/03 05:11:13;;;;;;;7.70;5.72;;;;;;;;;;4975055;28;20049;-70
2021/03/03 05:13:39;;;;;;;10.35;5.30;;;;;;;;;;4975351;28;20374;-70
2021/03/03 05:16:04;;;;;;;7.47;5.47;;;;;;;;;;4974097;28;20405;-69
2021/03/03 05:18:30;;;;;;;7.05;5.05;;;;;;;;;;4974639;28;20046;-70
2021/03/03 05:20:55;;;;;;;6.35;5.43;;;;;;;;;;4957919;28;20038;-70
2021/03/03 05:23:27;;;;;;;10.23;5.05;;;;;;;;;;4990540;28;20039;-69
2021/03/03 05:25:53;;;;;;;6.95;4.22;;;;;;;;;;4973707;28;20505;-70
2021/03/03 05:28:19;;;;;;;7.82;5.18;;;;;;;;;;4990254;28;20038;-70
2021/03/03 05:30:44;;;;;;;6.13;4.47;;;;;;;;;;4957899;28;20246;-70
2021/03/03 05:33:09;;;;;;;8.13;5.57;;;;;;;;;;4958089;28;20401;-70
2021/03/03 05:35:35;;;;;;;7.95;5.30;;;;;;;;;;4975450;28;20440;-70
2021/03/03 05:38:00;;;;;;;7.50;5.20;;;;;;;;;;4973889;28;20066;-70
2021/03/03 05:40:26;;;;;;;9.13;5.20;;;;;;;;;;4957913;28;20042;-70
2021/03/03 05:42:51;;;;;;;8.38;5.00;;;;;;;;;;4974631;28;20031;-70
2021/03/03 05:45:17;;;;;;;6.88;5.35;;;;;;;;;;4974116;28;20384;-70
2021/03/03 05:47:42;;;;;;;6.40;4.72;;;;;;;;;;4974482;28;20086;-70
2021/03/03 05:50:09;;;;;;;7.88;5.40;;;;;;;;;;4973727;28;20039;-70
2021/03/03 05:52:34;;;;;;;6.85;5.35;;;;;;;;;;4973242;28;20382;-71
2021/03/03 05:55:02;;;;;;;9.02;5.00;;;;;;;;;;4955782;28;20082;-71
2021/03/03 05:57:27;;;;;;;7.22;4.53;;;;;;;;;;4971619;28;20089;-71
2021/03/03 05:59:53;;;;;;;8.07;5.45;;;;;;;;;;4971596;28;20432;-71
2021/03/03 06:02:18;;;;;;;7.13;4.93;;;;;;;;;;4973717;28;20043;-71
2021/03/03 06:04:44;;;;;;;7.93;4.35;;;;;;;;;;4953256;29;20047;-71
2021/03/03 06:07:10;;;;;;;7.63;5.18;;;;;;;;;;4989355;28;20393;-71
2021/03/03 06:09:35;;;;;;;8.20;5.65;;;;;;;;;;5002896;28;20038;-71
2021/03/03 06:12:01;;;;;;;7.93;4.40;;;;;;;;;;5006145;28;20034;-71
2021/03/03 06:14:26;;;;;;;7.15;4.80;;;;;;;;;;4984551;28;20042;-71
2021/03/03 06:16:55;;;;;;;8.85;5.30;;;;;;;;;;4976753;28;20030;-70
2021/03/03 06:19:20;;;;;;;9.23;5.50;;;;;;;;;;4993231;28;20468;-71
2021/03/03 06:21:46;;;;;;;16.25;6.22;;;;;;;;;;4987083;28;20042;-71
2021/03/03 06:24:11;;;;;;;13.85;6.38;;;;;;;;;;4973796;28;20450;-70
2021/03/03 06:26:56;;;;;;;11.02;5.75;;;;;;;;;;4973346;28;20041;-70
2021/03/03 06:29:22;;;;;;;10.95;6.53;;;;;;;;;;4958514;28;20085;-70
2021/03/03 06:31:48;;;;;;;10.30;5.72;;;;;;;;;;4939427;28;20126;-70
2021/03/03 06:34:20;;;;;;;13.48;6.47;;;;;;;;;;4989141;28;20113;-71
2021/03/03 06:36:55;;;;;;;10.43;6.00;;;;;;;;;;4989480;28;20089;-71
2021/03/03 06:39:24;;;;;;;11.75;5.72;;;;;;;;;;4974099;28;20062;-70
2021/03/03 06:41:51;;;;;;;7.95;5.25;;;;;;;;;;4962938;28;20106;-71
2021/03/03 06:44:16;;;;;;;10.77;5.57;;;;;;;;;;4969686;28;20035;-70
2021/03/03 06:46:43;;;;;;;10.77;6.15;;;;;;;;;;4989148;28;20030;-70
2021/03/03 06:49:20;;;;;;;11.52;5.68;;;;;;;;;;4988529;28;20027;-70
2021/03/03 06:51:47;;;;;;;11.35;5.07;;;;;;;;;;4963815;28;20090;-71
2021/03/03 06:54:20;;;;;;;12.30;5.40;;;;;;;;;;4954645;29;20102;-70
2021/03/03 06:56:52;;;;;;;10.68;5.95;;;;;;;;;;4999419;28;20038;-70
2021/03/03 06:59:17;;;;;;;;;;;;;;;;;;5005330;28;20035;-71
2021/03/03 07:01:47;;;;;;;10.18;5.50;;;;;;;;;;4974167;28;20013;-71
2021/03/03 07:04:18;;;;;;;11.43;5.80;;;;;;;;;;4988491;28;20121;-70
2021/03/03 07:06:44;;;;;;;10.97;6.17;;;;;;;;;;4973963;28;20039;-71
2021/03/03 07:09:11;;;;;;;13.07;5.68;;;;;;;;;;4972762;28;20078;-71
2021/03/03 07:11:40;;;;;;;13.75;5.05;;;;;;;;;;4969880;28;20035;-70
2021/03/03 07:14:19;;;;;;;11.13;5.65;;;;;;;;;;4972039;28;20031;-71
2021/03/03 07:17:06;;;;;;;10.15;5.40;;;;;;;;;;4958482;28;20050;-70
2021/03/03 07:19:33;;;;;;;12.32;5.85;;;;;;;;;;4956952;28;20034;-71
2021/03/03 07:21:59;;;;;;;10.50;5.75;;;;;;;;;;4962276;28;20081;-71
2021/03/03 07:24:24;;;;;;;11.63;5.47;;;;;;;;;;4971469;28;20027;-71
2021/03/03 07:26:50;;;;;;;10.75;6.03;;;;;;;;;;5003812;28;20477;-71
2021/03/03 07:29:16;;;;;;;9.10;5.10;;;;;;;;;;4973501;28;20477;-70
2021/03/03 07:31:41;;;;;;;14.57;6.07;;;;;;;;;;4973861;28;20031;-71
2021/03/03 07:34:06;;;;;;;8.07;5.38;;;;;;;;;;4964849;28;20035;-70
2021/03/03 07:36:36;;;;;;;12.13;5.88;;;;;;;;;;4955970;28;20034;-71
2021/03/03 07:39:03;;;;;;;10.13;5.82;;;;;;;;;;4971967;28;20034;-71
2021/03/03 07:41:28;;;;;;;8.30;5.00;;;;;;;;;;4955908;28;20039;-71
2021/03/03 07:43:54;;;;;;;8.90;5.75;;;;;;;;;;4955429;28;20026;-71
2021/03/03 07:46:19;;;;;;;11.23;5.93;;;;;;;;;;4988056;28;20030;-71
2021/03/03 07:48:47;;;;;;;9.07;5.25;;;;;;;;;;4971463;28;20038;-71
2021/03/03 07:51:12;;;;;;;8.73;5.50;;;;;;;;;;5004352;28;20035;-71
2021/03/03 07:53:38;;;;;;;8.40;5.30;;;;;;;;;;4971589;28;20427;-71
2021/03/03 07:56:06;;;;;;;8.90;5.30;;;;;;;;;;4971506;28;20039;-71
2021/03/03 07:58:32;;;;;;;10.35;6.03;;;;;;;;;;4955899;28;20023;-71
2021/03/03 08:00:57;;;;;;;8.05;4.80;;;;;;;;;;4971142;28;20130;-71
2021/03/03 08:03:45;;;;;;;6.95;5.13;;;;;;;;;;4955516;28;20501;-71
2021/03/03 08:06:23;;;;;;;9.45;6.22;;;;;;;;;;4973116;28;20045;-71
2021/03/03 08:09:12;;;;;;;8.65;5.72;;;;;;;;;;4973055;28;20031;-71
2021/03/03 08:11:48;;;;;;;8.48;4.93;;;;;;;;;;4974597;28;20039;-71
2021/03/03 08:14:36;;;;;;;8.52;6.13;;;;;;;;;;4958113;28;20097;-71
2021/03/03 08:17:06;;;;;;;8.38;5.65;;;;;;;;;;4971279;28;20048;-71
2021/03/03 08:19:46;;;;;;;7.53;5.43;;;;;;;;;;4972380;28;20089;-71
2021/03/03 08:22:12;;;;;;;8.43;5.43;;;;;;;;;;4982919;28;20122;-70
2021/03/03 08:24:37;;;;;;;8.38;5.60;;;;;;;;;;4955435;28;20502;-71
2021/03/03 08:27:13;;;;;;;9.00;5.18;;;;;;;;;;4972746;28;20042;-71
2021/03/03 08:29:38;;;;;;;8.43;5.47;;;;;;;;;;4956283;28;20032;-71
2021/03/03 08:32:23;;;;;;;8.02;5.43;;;;;;;;;;4971284;28;20523;-71
2021/03/03 08:34:52;;;;;;;7.20;5.40;;;;;;;;;;4968755;28;20093;-71
2021/03/03 08:37:27;;;;;;;8.45;5.75;;;;;;;;;;5002118;28;20501;-71
2021/03/03 08:39:52;;;;;;;9.30;5.60;;;;;;;;;;4962105;28;20027;-71
2021/03/03 08:42:26;;;;;;;8.10;5.53;;;;;;;;;;4987777;28;20520;-71
2021/03/03 08:45:05;;;;;;;9.15;4.93;;;;;;;;;;5002884;28;20070;-71
2021/03/03 08:47:46;;;;;;;10.48;5.78;;;;;;;;;;5003759;28;20034;-71
2021/03/03 08:50:32;;;;;;;11.70;5.70;;;;;;;;;;5003727;28;20497;-70
2021/03/03 08:53:20;;;;;;;9.45;6.07;;;;;;;;;;4967697;28;20035;-69
2021/03/03 08:55:45;;;;;;;10.60;5.65;;;;;;;;;;4953684;28;20141;-69
2021/03/03 08:58:35;;;;;;;8.07;5.72;;;;;;;;;;4953175;29;20478;-70
2021/03/03 09:01:01;;;;;;;8.48;5.88;;;;;;;;;;4961943;28;20054;-69
2021/03/03 09:03:26;;;;;;;9.02;6.03;;;;;;;;;;4959043;28;20031;-69
2021/03/03 09:05:52;;;;;;;10.82;6.68;;;;;;;;;;4975063;28;20118;-70
2021/03/03 09:08:18;;;;;;;8.43;6.30;;;;;;;;;;4990214;28;20388;-72
2021/03/03 09:10:44;;;;;;;9.95;7.00;;;;;;;;;;4990663;28;20057;-72
2021/03/03 09:13:09;;;;;;;11.55;6.45;;;;;;;;;;4975727;28;20051;-72
2021/03/03 09:15:35;;;;;;;9.43;6.03;;;;;;;;;;4977711;28;20392;-69
2021/03/03 09:18:00;;;;;;;11.38;7.07;;;;;;;;;;4982833;28;20381;-70
2021/03/03 09:20:26;;;;;;;10.40;6.80;;;;;;;;;;4958470;28;20108;-70
2021/03/03 09:22:51;;;;;;;12.50;6.72;;;;;;;;;;4990976;28;20101;-70
2021/03/03 09:25:20;;;;;;;11.20;6.55;;;;;;;;;;4995348;28;20030;-70
2021/03/03 09:27:53;;;;;;;9.88;6.78;;;;;;;;;;4993974;28;20034;-70
2021/03/03 09:30:21;;;;;;;10.20;6.88;;;;;;;;;;4981773;28;20035;-70
2021/03/03 09:32:48;;;;;;;12.85;7.88;;;;;;;;;;4974635;28;20053;-70
2021/03/03 09:35:14;;;;;;;17.30;7.32;;;;;;;;;;4974543;28;20034;-70
2021/03/03 09:37:43;;;;;;;12.32;7.65;;;;;;;;;;4973908;28;20066;-70
2021/03/03 09:40:10;;;;;;;13.57;8.35;;;;;;;;;;4974072;28;20035;-70
2021/03/03 09:42:46;;;;;;;13.40;8.05;;;;;;;;;;4958385;28;20034;-70
2021/03/03 09:45:18;;;;;;;13.55;7.90;;;;;;;;;;4974391;28;20027;-70
2021/03/03 09:47:44;;;;;;;13.27;8.82;;;;;;;;;;5006647;28;20030;-70
2021/03/03 09:50:11;;;;;;;12.23;7.93;;;;;;;;;;4990318;28;20038;-70
2021/03/03 09:52:41;;;;;;;11.48;7.78;;;;;;;;;;4975074;28;20031;-70
2021/03/03 09:55:09;;;;;;;13.98;8.15;;;;;;;;;;5006795;28;20081;-70
2021/03/03 09:57:34;;;;;;;15.13;9.23;;;;;;;;;;4974053;28;20037;-70
2021/03/03 10:00:00;;;;;;;11.40;8.27;;;;;;;;;;4989530;28;20405;-70
2021/03/03 10:02:26;;;;;;;12.57;7.75;;;;;;;;;;4973944;28;20041;-70
2021/03/03 10:04:52;;;;;;;13.30;8.02;;;;;;;;;;4957254;28;20119;-70
2021/03/03 10:07:21;;;;;;;12.02;7.43;;;;;;;;;;4973097;28;20042;-70
2021/03/03 10:09:47;;;;;;;12.80;7.22;;;;;;;;;;4957787;28;20039;-70
2021/03/03 10:12:14;;;;;;;30.02;21.35;;;;;;;;;;4957396;28;20062;-70
2021/03/03 10:15:08;;;;;;;29.20;22.45;;;;;;;;;;4973429;28;20086;-70
2021/03/03 10:17:44;;;;;;;29.92;22.30;;;;;;;;;;4972980;28;20382;-70
2021/03/03 10:20:26;;;;;;;26.90;19.40;;;;;;;;;;4972476;28;20057;-70
2021/03/03 10:22:58;;;;;;;25.65;17.88;;;;;;;;;;4959526;28;20031;-70
2021/03/03 10:25:28;;;;;;;20.80;16.00;;;;;;;;;;4972501;28;20395;-71
2021/03/03 10:27:54;;;;;;;25.85;15.77;;;;;;;;;;4956762;28;20041;-71
2021/03/03 10:30:21;;;;;;;22.02;15.05;;;;;;;;;;4957095;28;20038;-71
2021/03/03 10:32:46;;;;;;;19.65;13.30;;;;;;;;;;4974513;28;20035;-71
2021/03/03 10:35:12;;;;;;;20.15;12.38;;;;;;;;;;4973006;28;20113;-71
2021/03/03 10:37:37;;;;;;;17.98;11.73;;;;;;;;;;4973701;28;20030;-70
2021/03/03 10:40:16;;;;;;;18.80;12.25;;;;;;;;;;4972678;28;20477;-71
2021/03/03 10:42:41;;;;;;;16.55;10.45;;;;;;;;;;4973212;28;20058;-71
2021/03/03 10:45:19;;;;;;;15.98;10.65;;;;;;;;;;4972069;28;20037;-71
2021/03/03 10:47:50;;;;;;;16.30;10.85;;;;;;;;;;4973919;28;20035;-71
2021/03/03 10:50:19;;;;;;;20.67;9.68;;;;;;;;;;4973291;28;20161;-71
2021/03/03 10:52:55;;;;;;;17.58;10.75;;;;;;;;;;4972757;28;20110;-71
2021/03/03 10:55:21;;;;;;;14.68;9.13;;;;;;;;;;4973620;28;20485;-71
2021/03/03 10:58:00;;;;;;;15.27;9.52;;;;;;;;;;4973015;28;20033;-71
2021/03/03 11:00:26;;;;;;;12.88;9.10;;;;;;;;;;4972610;28;20069;-71
2021/03/03 11:02:59;;;;;;;17.55;9.30;;;;;;;;;;4973998;28;20094;-71
2021/03/03 11:05:24;;;;;;;18.30;12.77;;;;;;;;;;4972175;28;20089;-71
2021/03/03 11:07:50;;;;;;;16.33;11.50;;;;;;;;;;4971098;28;20058;-71
2021/03/03 11:10:15;;;;;;;15.27;10.18;;;;;;;;;;4971382;28;20076;-71
2021/03/03 11:12:41;;;;;;;14.13;8.98;;;;;;;;;;4971234;28;20374;-71
2021/03/03 11:15:06;;;;;;;12.80;9.15;;;;;;;;;;4971415;28;20043;-71
2021/03/03 11:17:32;;;;;;;14.10;9.27;;;;;;;;;;4972298;28;20042;-71
2021/03/03 11:19:57;;;;;;;13.27;7.88;;;;;;;;;;4973291;28;20046;-71
2021/03/03 11:22:22;;;;;;;12.10;7.57;;;;;;;;;;4972956;28;20042;-71
2021/03/03 11:24:48;;;;;;;11.98;8.23;;;;;;;;;;4971507;28;20058;-71
2021/03/03 11:27:13;;;;;;;14.80;8.18;;;;;;;;;;4973426;28;20397;-71
2021/03/03 11:29:39;;;;;;;13.93;8.52;;;;;;;;;;4973423;28;20050;-71
2021/03/03 11:32:04;;;;;;;13.45;8.32;;;;;;;;;;4971752;28;20085;-71
2021/03/03 11:34:30;;;;;;;11.55;7.80;;;;;;;;;;4973388;28;20035;-71
2021/03/03 11:36:57;;;;;;;14.60;8.23;;;;;;;;;;4973074;28;20041;-70
2021/03/03 11:39:23;;;;;;;12.15;8.10;;;;;;;;;;4972953;28;20093;-71
2021/03/03 11:41:48;;;;;;;15.57;9.23;;;;;;;;;;4973512;28;20034;-71
2021/03/03 11:44:14;;;;;;;13.15;8.45;;;;;;;;;;4971730;28;20034;-70
2021/03/03 11:46:39;;;;;;;13.63;9.02;;;;;;;;;;4971657;28;20385;-71
2021/03/03 11:49:04;;;;;;;13.25;8.85;;;;;;;;;;4973028;28;20042;-71
2021/03/03 11:51:30;;;;;;;13.02;8.35;;;;;;;;;;5004532;28;20050;-71
2021/03/03 11:53:55;;;;;;;11.25;8.73;;;;;;;;;;4971470;28;20030;-71
2021/03/03 11:56:21;;;;;;;12.15;7.65;;;;;;;;;;5004288;28;20109;-71
2021/03/03 11:58:46;;;;;;;12.77;8.35;;;;;;;;;;5004249;28;20437;-71
2021/03/03 12:01:12;;;;;;;15.55;7.55;;;;;;;;;;4971272;28;20409;-71
2021/03/03 12:03:37;;;;;;;12.80;7.75;;;;;;;;;;4971081;28;20392;-71
2021/03/03 12:06:02;;;;;;;13.48;7.97;;;;;;;;;;4955301;28;20065;-70
2021/03/03 12:08:28;;;;;;;17.10;8.15;;;;;;;;;;4971453;28;20416;-70
2021/03/03 12:10:53;;;;;;;12.55;7.53;;;;;;;;;;4971531;28;20397;-70
2021/03/03 12:13:19;;;;;;;14.13;8.25;;;;;;;;;;4971390;28;20371;-71
2021/03/03 12:15:44;;;;;;;14.55;7.57;;;;;;;;;;4955014;28;20105;-71
2021/03/03 12:18:11;;;;;;;13.50;7.72;;;;;;;;;;4971370;28;20484;-70
2021/03/03 12:20:36;;;;;;;13.30;7.70;;;;;;;;;;4971891;28;20035;-70
2021/03/03 12:23:02;;;;;;;12.55;7.05;;;;;;;;;;4970367;28;20030;-71
2021/03/03 12:25:27;;;;;;;12.45;7.57;;;;;;;;;;4971761;28;20122;-70
2021/03/03 12:27:53;;;;;;;10.27;6.20;;;;;;;;;;4972805;28;20081;-70
2021/03/03 12:30:19;;;;;;;16.08;8.50;;;;;;;;;;4970928;28;20949;-71
2021/03/03 12:32:44;;;;;;;13.13;8.23;;;;;;;;;;4955472;28;20057;-71
2021/03/03 12:35:10;;;;;;;11.13;7.15;;;;;;;;;;4972333;28;20438;-70
2021/03/03 12:37:35;;;;;;;14.52;8.02;;;;;;;;;;4974751;28;20119;-71
2021/03/03 12:40:02;;;;;;;19.45;7.82;;;;;;;;;;4975413;28;20114;-71
2021/03/03 12:42:27;;;;;;;20.27;8.60;;;;;;;;;;4976423;28;20049;-71
2021/03/03 12:44:53;;;;;;;20.02;10.40;;;;;;;;;;4976226;28;20031;-71
2021/03/03 12:47:18;;;;;;;18.95;11.10;;;;;;;;;;4991033;28;20043;-71
2021/03/03 12:49:44;;;;;;;18.17;11.02;;;;;;;;;;5007382;28;20042;-71
2021/03/03 12:52:09;;;;;;;17.70;10.75;;;;;;;;;;4974624;28;20488;-71
2021/03/03 12:54:35;;;;;;;23.90;12.45;;;;;;;;;;4991550;28;20030;-70
2021/03/03 12:57:00;;;;;;;20.83;11.52;;;;;;;;;;4991447;28;20429;-71
2021/03/03 12:59:26;;;;;;;20.50;10.82;;;;;;;;;;4974159;28;20078;-71
2021/03/03 13:01:51;;;;;;;18.50;10.70;;;;;;;;;;4974275;28;20093;-71
2021/03/03 13:04:17;;;;;;;20.70;12.82;;;;;;;;;;4975312;28;20026;-71
2021/03/03 13:06:42;;;;;;;16.05;10.55;;;;;;;;;;4974833;28;20049;-72
2021/03/03 13:09:07;;;;;;;18.80;10.63;;;;;;;;;;4974320;28;20525;-73
2021/03/03 13:11:33;;;;;;;16.60;9.57;;;;;;;;;;4941952;28;20129;-73
2021/03/03 13:13:58;;;;;;;17.25;9.50;;;;;;;;;;4982374;28;20053;-73
2021/03/03 13:16:24;;;;;;;15.85;9.07;;;;;;;;;;4980609;28;20046;-74
2021/03/03 13:18:49;;;;;;;17.15;9.07;;;;;;;;;;4974449;28;20042;-74
2021/03/03 13:21:15;;;;;;;13.65;8.07;;;;;;;;;;4958518;28;20429;-74
2021/03/03 13:23:41;;;;;;;13.95;8.00;;;;;;;;;;4974063;28;20030;-73
2021/03/03 13:26:06;;;;;;;16.90;7.95;;;;;;;;;;4974383;28;20061;-73
2021/03/03 13:28:32;;;;;;;12.68;7.22;;;;;;;;;;4958547;28;20045;-73
2021/03/03 13:30:57;;;;;;;14.23;7.53;;;;;;;;;;4958305;28;20045;-73
2021/03/03 13:33:23;;;;;;;12.38;6.78;;;;;;;;;;4958097;28;20035;-73
2021/03/03 13:35:48;;;;;;;11.13;6.95;;;;;;;;;;4974727;28;20038;-73
2021/03/03 13:38:14;;;;;;;9.45;5.68;;;;;;;;;;4975466;28;20453;-73
2021/03/03 13:40:40;;;;;;;9.45;6.40;;;;;;;;;;4957476;28;20074;-73
2021/03/03 13:43:05;;;;;;;12.07;5.68;;;;;;;;;;4957026;28;20035;-73
2021/03/03 13:45:31;;;;;;;13.82;6.38;;;;;;;;;;4954427;28;20504;-73
2021/03/03 13:47:56;;;;;;;9.75;5.53;;;;;;;;;;4970905;28;20038;-73
2021/03/03 13:50:22;;;;;;;7.78;5.32;;;;;;;;;;4957817;28;20470;-73
2021/03/03 13:52:47;;;;;;;9.27;5.35;;;;;;;;;;4973351;28;20386;-73
2021/03/03 13:55:13;;;;;;;12.93;5.30;;;;;;;;;;4973917;28;20039;-73
2021/03/03 13:57:38;;;;;;;13.40;5.15;;;;;;;;;;4958140;28;20038;-73
2021/03/03 14:00:05;;;;;;;9.30;5.95;;;;;;;;;;4973204;28;20051;-73
2021/03/03 14:02:30;;;;;;;8.52;5.25;;;;;;;;;;4958047;28;20367;-73
2021/03/03 14:04:56;;;;;;;9.27;5.00;;;;;;;;;;4973316;28;20046;-73
2021/03/03 14:07:21;;;;;;;9.63;5.15;;;;;;;;;;4973534;28;20038;-73
2021/03/03 14:09:49;;;;;;;9.13;5.00;;;;;;;;;;4974822;28;20031;-73
2021/03/03 14:12:14;;;;;;;7.30;4.47;;;;;;;;;;4957355;28;20054;-73
2021/03/03 14:14:39;;;;;;;7.45;4.80;;;;;;;;;;4973286;28;20478;-72
2021/03/03 14:17:05;;;;;;;9.20;5.00;;;;;;;;;;4974854;28;20042;-72
2021/03/03 14:19:30;;;;;;;10.63;5.55;;;;;;;;;;4973551;28;20027;-72
2021/03/03 14:21:56;;;;;;;12.05;5.22;;;;;;;;;;4973577;28;20094;-73
2021/03/03 14:24:21;;;;;;;12.38;5.30;;;;;;;;;;4957086;28;20023;-72
2021/03/03 14:26:48;;;;;;;10.73;6.30;;;;;;;;;;4974435;28;20166;-73
2021/03/03 14:29:16;;;;;;;9.20;5.57;;;;;;;;;;4957848;28;20030;-73
2021/03/03 14:31:41;;;;;;;11.20;6.75;;;;;;;;;;4973395;28;20065;-72
2021/03/03 14:34:07;;;;;;;10.80;6.75;;;;;;;;;;4973019;28;20477;-72
2021/03/03 14:36:32;;;;;;;15.30;7.45;;;;;;;;;;4957421;28;20058;-72